Latest Weather Observations for Lord Howe Island Windy Point

IDN60801

Issued at 11:02 am EST Saturday 5 September 2015 (issued every 30 minutes, with the page automatically refreshed every 10 minutes)

About weather observations | Map of weather stations | Latest weather observations for NSW | Other Formats
Station Details ID: 200715 Name: LORD HOWE ISLAND WINDY POINT Lat: -31.54 Lon: 159.07 Height: 4.0 m
Data from the previous 72 hours. | See also: Recent months for locations in New South Wales
Date/Time
EST
Temp
°C
App
Temp
°C
Dew
Point
Rel
Hum
%
Delta-T
°C
Wind Press
QNH
hPa
Press
MSL
hPa
Rain
since 9 am
mm
Dir
 
Spd
km/h
Gust
km/h
Spd
kts
Gust
kts
05/11:00am - - - - - W 28 33 15 18 - - -
05/10:30am - - - - - WSW 41 46 22 25 - - -
05/10:15am - - - - - SW 28 44 15 24 - - -
05/10:00am - - - - - SSW 20 24 11 13 - - -
05/09:30am - - - - - SSW 17 22 9 12 - - -
05/09:00am - - - - - SSW 19 24 10 13 - - -
05/08:30am - - - - - SSW 20 30 11 16 - - -
05/08:00am - - - - - S 17 24 9 13 - - -
05/07:30am - - - - - SSE 17 24 9 13 - - -
05/07:00am - - - - - SSW 28 37 15 20 - - -
05/06:30am - - - - - SW 22 28 12 15 - - -
05/06:00am - - - - - SW 26 32 14 17 - - -
05/05:30am - - - - - SW 30 37 16 20 - - -
05/05:00am - - - - - S 19 28 10 15 - - -
05/04:30am - - - - - S 20 37 11 20 - - -
05/04:00am - - - - - S 22 35 12 19 - - -
05/03:30am - - - - - SSW 32 37 17 20 - - -
05/03:00am - - - - - SSW 28 35 15 19 - - -
05/02:30am - - - - - SSW 26 32 14 17 - - -
05/02:00am - - - - - SSW 22 32 12 17 - - -
05/01:30am - - - - - SW 28 35 15 19 - - -
05/01:00am - - - - - SSW 30 35 16 19 - - -
05/12:30am - - - - - SSW 32 39 17 21 - - -
05/12:00am - - - - - SSW 32 37 17 20 - - -
 
Date/Time
EST
Temp
°C
App
Temp
°C
Dew
Point
Rel
Hum
%
Delta-T
°C
Wind Press
QNH
hPa
Press
MSL
hPa
Rain
since 9 am
mm
Dir
 
Spd
km/h
Gust
km/h
Spd
kts
Gust
kts
04/11:30pm - - - - - SSW 30 37 16 20 - - -
04/11:00pm - - - - - S 24 32 13 17 - - -
04/10:30pm - - - - - S 24 35 13 19 - - -
04/10:00pm - - - - - SSW 32 41 17 22 - - -
04/09:30pm - - - - - S 30 44 16 24 - - -
04/09:00pm - - - - - S 28 39 15 21 - - -
04/08:30pm - - - - - S 33 52 18 28 - - -
04/08:23pm - - - - - S 35 52 19 28 - - -
04/08:00pm - - - - - SSE 26 39 14 21 - - -
04/07:31pm - - - - - S 28 46 15 25 - - -
04/07:30pm - - - - - S 30 46 16 25 - - -
04/07:01pm - - - - - S 32 52 17 28 - - -
04/07:00pm - - - - - S 32 46 17 25 - - -
04/06:38pm - - - - - SSW 35 61 19 33 - - -
04/06:30pm - - - - - S 32 46 17 25 - - -
04/06:00pm - - - - - S 33 56 18 30 - - -
04/05:32pm - - - - - S 30 48 16 26 - - -
04/05:30pm - - - - - S 26 43 14 23 - - -
04/05:09pm - - - - - S 28 52 15 28 - - -
04/05:00pm - - - - - S 28 52 15 28 - - -
04/04:30pm - - - - - SSW 33 52 18 28 - - -
04/04:00pm - - - - - S 32 54 17 29 - - -
04/03:34pm - - - - - S 37 59 20 32 - - -
04/03:30pm - - - - - S 37 50 20 27 - - -
04/03:00pm - - - - - SSW 41 59 22 32 - - -
04/02:34pm - - - - - SSW 43 65 23 35 - - -
04/02:30pm - - - - - SSW 43 59 23 32 - - -
04/02:03pm - - - - - SSW 43 65 23 35 - - -
04/02:00pm - - - - - SSW 44 56 24 30 - - -
04/01:30pm - - - - - SSW 41 67 22 36 - - -
04/01:00pm - - - - - S 43 70 23 38 - - -
04/12:30pm - - - - - S 39 70 21 38 - - -
04/12:00pm - - - - - S 46 72 25 39 - - -
04/11:30am - - - - - S 50 74 27 40 - - -
04/11:00am - - - - - S 50 76 27 41 - - -
04/10:53am - - - - - SSW 48 67 26 36 - - -
04/10:30am - - - - - SSW 46 57 25 31 - - -
04/10:00am - - - - - S 43 56 23 30 - - -
04/09:30am - - - - - SSW 50 63 27 34 - - -
04/09:00am - - - - - SSW 46 57 25 31 - - -
04/08:30am - - - - - SSW 43 52 23 28 - - -
04/08:13am - - - - - SW 50 59 27 32 - - -
04/08:00am - - - - - WSW 46 59 25 32 - - -
04/07:30am - - - - - WSW 50 57 27 31 - - -
04/07:00am - - - - - WSW 50 57 27 31 - - -
04/06:30am - - - - - WSW 50 59 27 32 - - -
04/06:00am - - - - - WSW 52 65 28 35 - - -
04/05:30am - - - - - WSW 50 59 27 32 - - -
04/05:00am - - - - - WSW 48 57 26 31 - - -
04/04:30am - - - - - W 48 56 26 30 - - -
04/04:00am - - - - - WSW 43 56 23 30 - - -
04/03:30am - - - - - WSW 44 54 24 29 - - -
04/03:00am - - - - - W 41 50 22 27 - - -
04/02:30am - - - - - W 39 48 21 26 - - -
04/02:00am - - - - - W 44 52 24 28 - - -
04/01:44am - - - - - WSW 39 57 21 31 - - -
04/01:40am - - - - - WSW 41 57 22 31 - - -
04/01:36am - - - - - W 44 56 24 30 - - -
04/01:30am - - - - - W 41 56 22 30 - - -
04/01:00am - - - - - W 39 46 21 25 - - -
04/12:30am - - - - - W 39 48 21 26 - - -
04/12:00am - - - - - W 46 54 25 29 - - -
 
Date/Time
EST
Temp
°C
App
Temp
°C
Dew
Point
Rel
Hum
%
Delta-T
°C
Wind Press
QNH
hPa
Press
MSL
hPa
Rain
since 9 am
mm
Dir
 
Spd
km/h
Gust
km/h
Spd
kts
Gust
kts
03/11:30pm - - - - - W 43 52 23 28 - - -
03/11:00pm - - - - - W 33 39 18 21 - - -
03/10:30pm - - - - - WSW 28 32 15 17 - - -
03/10:00pm - - - - - WSW 28 35 15 19 - - -
03/09:30pm - - - - - SW 33 37 18 20 - - -
03/09:00pm - - - - - SW 33 39 18 21 - - -
03/08:30pm - - - - - SSW 33 43 18 23 - - -
03/08:00pm - - - - - WSW 50 91 27 49 - - -
03/07:57pm - - - - - WNW 44 91 24 49 - - -
03/07:56pm - - - - - NW 43 91 23 49 - - -
03/07:54pm - - - - - NW 35 91 19 49 - - -
03/07:53pm - - - - - NNW 32 80 17 43 - - -
03/07:30pm - - - - - NNW 30 57 16 31 - - -
03/07:02pm - - - - - NW 24 50 13 27 - - -
03/07:00pm - - - - - NW 20 46 11 25 - - -
03/06:30pm - - - - - NW 19 32 10 17 - - -
03/06:14pm - - - - - NW 28 50 15 27 - - -
03/06:00pm - - - - - NW 24 41 13 22 - - -
03/05:30pm - - - - - NW 37 61 20 33 - - -
03/05:13pm - - - - - NW 28 54 15 29 - - -
03/05:00pm - - - - - NW 24 46 13 25 - - -
03/04:30pm - - - - - NNE 15 32 8 17 - - -
03/04:00pm - - - - - NW 20 44 11 24 - - -
03/03:30pm - - - - - NW 19 39 10 21 - - -
03/03:00pm - - - - - NW 17 33 9 18 - - -
03/02:30pm - - - - - WNW 22 44 12 24 - - -
03/02:00pm - - - - - W 13 33 7 18 - - -
03/01:30pm - - - - - NW 15 30 8 16 - - -
03/01:00pm - - - - - WNW 19 37 10 20 - - -
03/12:30pm - - - - - WNW 17 32 9 17 - - -
03/12:00pm - - - - - NW 32 54 17 29 - - -
03/11:30am - - - - - NW 37 59 20 32 - - -
03/11:16am - - - - - NW 24 69 13 37 - - -
03/11:00am - - - - - N 13 24 7 13 - - -
03/10:30am - - - - - NNE 9 19 5 10 - - -
03/10:00am - - - - - NNW 11 22 6 12 - - -
03/09:30am - - - - - NNE 19 32 10 17 - - -
03/09:00am - - - - - NNE 17 28 9 15 - - -
03/08:30am - - - - - NNE 15 30 8 16 - - -
03/08:00am - - - - - NNE 17 32 9 17 - - -
03/07:30am - - - - - NNE 13 24 7 13 - - -
03/07:00am - - - - - NNE 17 30 9 16 - - -
03/06:30am - - - - - NNE 13 20 7 11 - - -
03/06:00am - - - - - NE 13 20 7 11 - - -
03/05:30am - - - - - NNE 11 19 6 10 - - -
03/05:00am - - - - - NNE 11 22 6 12 - - -
03/04:30am - - - - - NNE 9 19 5 10 - - -
03/04:00am - - - - - NNE 7 15 4 8 - - -
03/03:30am - - - - - NNE 9 17 5 9 - - -
03/03:00am - - - - - NE 7 13 4 7 - - -
03/02:30am - - - - - NNE 7 11 4 6 - - -
03/02:00am - - - - - NNE 7 9 4 5 - - -
03/01:30am - - - - - N 7 9 4 5 - - -
03/01:00am - - - - - CALM 0 0 0 0 - - -
03/12:30am - - - - - CALM 0 0 0 0 - - -
03/12:00am - - - - - CALM 0 0 0 0 - - -
 
Date/Time
EST
Temp
°C
App
Temp
°C
Dew
Point
Rel
Hum
%
Delta-T
°C
Wind Press
QNH
hPa
Press
MSL
hPa
Rain
since 9 am
mm
Dir
 
Spd
km/h
Gust
km/h
Spd
kts
Gust
kts
02/11:30pm - - - - - CALM 0 0 0 0 - - -
02/11:00pm - - - - - CALM 0 6 0 3 - - -
02/10:30pm - - - - - CALM 0 0 0 0 - - -
02/10:00pm - - - - - CALM 0 0 0 0 - - -
02/09:30pm - - - - - ENE 4 6 2 3 - - -
02/09:00pm - - - - - SSW 9 13 5 7 - - -
02/08:30pm - - - - - SW 11 13 6 7 - - -
02/08:00pm - - - - - W 15 19 8 10 - - -
02/07:30pm - - - - - WSW 13 19 7 10 - - -
02/07:00pm - - - - - WSW 15 19 8 10 - - -
02/06:30pm - - - - - WSW 17 20 9 11 - - -
02/06:00pm - - - - - WSW 20 24 11 13 - - -
02/05:30pm - - - - - WSW 20 24 11 13 - - -
02/05:00pm - - - - - WSW 22 26 12 14 - - -
02/04:30pm - - - - - SW 24 30 13 16 - - -
02/04:00pm - - - - - WSW 26 30 14 16 - - -
02/03:30pm - - - - - SW 28 30 15 16 - - -
02/03:00pm - - - - - SW 30 33 16 18 - - -
02/02:30pm - - - - - SW 28 33 15 18 - - -
02/02:00pm - - - - - SW 30 35 16 19 - - -
02/01:30pm - - - - - SW 32 39 17 21 - - -
02/01:00pm - - - - - WSW 30 35 16 19 - - -
02/12:30pm - - - - - WSW 32 39 17 21 - - -
02/12:00pm - - - - - WSW 32 39 17 21 - - -
02/11:30am - - - - - WSW 33 39 18 21 - - -

Other Formats:

Comma delimited format used in spreadsheet applications
http://www.bom.gov.au/fwo/IDN60801/IDN60801.95995.axf

JavaScript Object Notation format (JSON) in row-major order
http://www.bom.gov.au/fwo/IDN60801/IDN60801.95995.json